Harrietsham, United Kingdom
Current Conditions -  °F | °C
As of 1:20 PM on Thursday 23 Oct 2014 (Local Time) from EGMC Reporting Station
Few Clouds Few Clouds  
Wind Chill: 61°   Ceiling: Unl
Heat Index: 61°   Visibility: 6mi
Dew Point: 50°   Wind: 15mph
Humidity: 68%   Direction: 220°SW
Pressure: 30.09"   Gusts: NA
Location:  51.24°N, 0.67°E
Report Text: EGMC 231220Z 22013KT 9999 FEW034 16/10 Q1019
Loading
Personal Weather Stations






























Interactive Weather Map
Tropical Storm Tracking
New forecast layout! Learn more

10-Day Weather Forecast

Advertisements
Track Severe Weather on mobile